KVAD/VAD METAR and TAF weather

Enter ICAO airport designator
Station Type Date Time Source
KVAD METAR 2020/01/27 16:56 UTC NOAA

KVAD 271656Z AUTO 00000KT 10SM FEW045 SCT075 14/08 A2997 RMK AO2 SLPNO T01350077 $


Station Type Date Time Source
KVAD Decoded METAR 2020/01/27 16:56 UTC NOAA

Moody Air Force Base, GA, United States (KVAD) 30-58N 083-12W 71M
Jan 27, 2020 - 11:56 AM EST / 2020.01.27 1656 UTC
Wind: Calm:0
Visibility: 10 mile(s):0
Sky conditions: partly cloudy
Temperature: 56.3 F (13.5 C)
Dew Point: 45.9 F (7.7 C)
Relative Humidity: 67%
Pressure (altimeter): 29.97 in. Hg (1014 hPa)
ob: KVAD 271656Z AUTO 00000KT 10SM FEW045 SCT075 14/08 A2997 RMK AO2 SLPNO T01350077
cycle: 17

Station Type Date Time Source
KVAD TAF 2020/01/27 17:03 UTC NOAA

TAF TAF KVAD 271700Z 2717/2823 VRB06KT 9999 BKN030 BKN080 QNH2991INS
TEMPO 2717/2721 9000 -RA
BECMG 2802/2803 32003KT 9999 BKN020 QNH2995INS
BECMG 2808/2809 36003KT 9999 SKC QNH2995INS TX15/2721Z TN04/2813Z

Example: see airport list